Time;durP1;ratioP1;P1;durP2;ratioP2;P2;SDS_P1;SDS_P2;PMS_P1;PMS_P2;Temp;Humidity;BMP_temperature;BMP_pressure;BME280_temperature;BME280_humidity;BME280_pressure;Samples;Min_cycle;Max_cycle;Signal;HPM_P1;HPM_P2
2023/04/06 00:01:21;;;;;;;12.88;6.45;;;4.60;68.30;;;;;;5092691;28;20028;-70
2023/04/06 00:03:47;;;;;;;14.13;6.70;;;4.60;69.00;;;;;;5092778;28;20024;-70
2023/04/06 00:06:13;;;;;;;14.10;6.72;;;4.50;69.40;;;;;;5091889;28;20047;-70
2023/04/06 00:08:39;;;;;;;10.23;6.03;;;4.50;69.50;;;;;;5092432;28;20400;-69
2023/04/06 00:11:05;;;;;;;11.30;6.72;;;4.40;69.90;;;;;;5092269;28;20104;-70
2023/04/06 00:13:30;;;;;;;18.75;6.38;;;4.40;70.50;;;;;;5092387;28;20200;-71
2023/04/06 00:15:56;;;;;;;12.25;7.18;;;4.30;70.60;;;;;;5092234;28;20501;-70
2023/04/06 00:18:22;;;;;;;11.68;6.88;;;4.30;71.20;;;;;;5092773;28;20077;-69
2023/04/06 00:20:48;;;;;;;8.45;5.95;;;4.20;71.50;;;;;;5092295;28;20077;-69
2023/04/06 00:23:14;;;;;;;15.13;6.80;;;4.20;71.90;;;;;;5092084;28;20028;-70
2023/04/06 00:25:40;;;;;;;18.65;7.32;;;4.20;72.60;;;;;;5091021;28;20025;-70
2023/04/06 00:28:05;;;;;;;11.13;7.22;;;4.20;72.70;;;;;;5092015;28;20032;-71
2023/04/06 00:30:31;;;;;;;14.48;6.70;;;4.20;72.40;;;;;;5092287;28;20051;-70
2023/04/06 00:32:57;;;;;;;14.48;6.95;;;4.20;72.40;;;;;;5091930;28;20028;-69
2023/04/06 00:35:23;;;;;;;14.95;6.82;;;4.10;72.20;;;;;;5091944;28;20410;-69
2023/04/06 00:37:48;;;;;;;12.48;7.35;;;4.20;72.40;;;;;;5091958;28;20105;-70
2023/04/06 00:40:15;;;;;;;14.35;7.35;;;4.10;72.40;;;;;;5092314;28;20028;-69
2023/04/06 00:42:41;;;;;;;14.38;7.30;;;4.10;72.90;;;;;;5091127;28;20031;-69
2023/04/06 00:45:07;;;;;;;12.20;7.03;;;4.20;72.20;;;;;;5091173;28;20028;-70
2023/04/06 00:47:33;;;;;;;13.93;7.47;;;4.10;72.40;;;;;;5091749;28;20089;-70
2023/04/06 00:49:59;;;;;;;12.30;6.82;;;4.00;72.50;;;;;;5091570;28;20036;-70
2023/04/06 00:52:25;;;;;;;11.65;6.80;;;4.00;72.90;;;;;;5091706;28;20111;-70
2023/04/06 00:54:51;;;;;;;16.23;7.22;;;4.00;73.10;;;;;;5091434;28;20024;-71
2023/04/06 00:57:17;;;;;;;17.20;7.30;;;3.90;73.40;;;;;;5091433;28;20039;-70
2023/04/06 00:59:43;;;;;;;13.27;6.93;;;4.00;73.50;;;;;;5091945;28;20353;-70
2023/04/06 01:02:09;;;;;;;12.00;7.40;;;3.90;74.00;;;;;;5091490;28;20028;-69
2023/04/06 01:04:35;;;;;;;10.45;7.07;;;4.00;74.00;;;;;;5091277;28;20032;-70
2023/04/06 01:07:01;;;;;;;12.20;6.60;;;4.00;73.90;;;;;;5091327;28;20039;-69
2023/04/06 01:09:30;;;;;;;18.88;6.75;;;4.00;73.10;;;;;;5091948;28;20028;-69
2023/04/06 01:11:56;;;;;;;13.60;7.22;;;4.10;73.60;;;;;;5090353;28;20457;-68
2023/04/06 01:14:23;;;;;;;10.90;7.22;;;4.00;73.50;;;;;;5090275;28;20392;-70
2023/04/06 01:16:49;;;;;;;11.23;7.07;;;4.00;74.10;;;;;;5091242;28;20476;-70
2023/04/06 01:19:14;;;;;;;12.88;7.88;;;3.90;74.20;;;;;;5091197;28;20358;-69
2023/04/06 01:21:41;;;;;;;12.00;7.25;;;3.90;74.40;;;;;;5091317;28;20012;-68
2023/04/06 01:24:07;;;;;;;11.18;7.47;;;3.90;74.50;;;;;;5091615;28;20026;-70
2023/04/06 01:26:34;;;;;;;14.95;7.22;;;3.80;75.50;;;;;;5091124;28;20036;-69
2023/04/06 01:29:01;;;;;;;16.52;7.40;;;3.80;75.40;;;;;;5090748;28;20032;-68
2023/04/06 01:31:27;;;;;;;11.05;7.32;;;3.80;75.80;;;;;;5089550;28;20051;-69
2023/04/06 01:33:53;;;;;;;14.35;7.30;;;3.70;76.10;;;;;;5090705;28;20031;-70
2023/04/06 01:36:19;;;;;;;12.05;6.85;;;3.80;76.40;;;;;;5078334;28;20021;-70
2023/04/06 01:38:46;;;;;;;15.35;7.80;;;3.80;75.90;;;;;;5070525;28;20596;-70
2023/04/06 01:41:12;;;;;;;14.90;7.60;;;3.90;76.30;;;;;;5070453;28;20025;-69
2023/04/06 01:43:37;;;;;;;12.35;6.53;;;4.00;75.80;;;;;;5070529;28;20039;-69
2023/04/06 01:46:03;;;;;;;13.93;7.30;;;4.00;75.70;;;;;;5070426;28;20098;-69
2023/04/06 01:48:29;;;;;;;14.57;7.43;;;4.10;76.10;;;;;;5070649;28;20067;-70
2023/04/06 01:50:55;;;;;;;17.80;8.05;;;4.10;76.70;;;;;;5069247;28;20032;-70
2023/04/06 01:53:21;;;;;;;13.02;7.13;;;4.10;77.40;;;;;;5070082;28;20036;-70
2023/04/06 01:55:47;;;;;;;15.90;7.90;;;4.10;77.00;;;;;;5070094;28;20021;-70
2023/04/06 01:58:13;;;;;;;12.32;7.80;;;4.10;77.80;;;;;;5070645;28;20035;-71
2023/04/06 02:00:42;;;;;;;14.95;8.15;;;4.10;77.90;;;;;;5069177;28;20033;-69
2023/04/06 02:03:07;;;;;;;14.85;8.32;;;3.90;78.10;;;;;;5070629;28;20016;-72
2023/04/06 02:05:37;;;;;;;13.75;7.25;;;3.80;79.00;;;;;;5070196;28;20459;-69
2023/04/06 02:08:05;;;;;;;12.82;7.78;;;3.90;78.80;;;;;;5069458;28;20036;-70
2023/04/06 02:10:31;;;;;;;14.05;8.02;;;3.90;79.10;;;;;;5070324;28;20029;-71
2023/04/06 02:12:56;;;;;;;15.13;8.00;;;3.80;79.30;;;;;;5070159;28;20033;-69
2023/04/06 02:15:22;;;;;;;15.55;7.35;;;3.90;79.10;;;;;;5070814;28;20040;-70
2023/04/06 02:17:48;;;;;;;12.95;7.60;;;3.90;80.00;;;;;;5070470;28;20025;-70
2023/04/06 02:20:14;;;;;;;14.80;7.47;;;4.00;80.50;;;;;;5070167;28;20125;-70
2023/04/06 02:22:40;;;;;;;11.20;6.93;;;4.00;80.50;;;;;;5069992;28;20021;-70
2023/04/06 02:25:06;;;;;;;13.43;7.97;;;3.90;80.70;;;;;;5069015;28;20047;-70
2023/04/06 02:27:32;;;;;;;14.25;7.65;;;3.80;80.40;;;;;;5070464;28;20035;-71
2023/04/06 02:29:58;;;;;;;13.77;8.18;;;3.80;80.80;;;;;;5070011;28;20048;-71
2023/04/06 02:32:24;;;;;;;12.82;7.60;;;3.80;81.00;;;;;;5070020;28;20040;-70
2023/04/06 02:34:50;;;;;;;17.02;8.00;;;3.90;81.70;;;;;;5068943;28;20044;-70
2023/04/06 02:37:15;;;;;;;13.30;7.68;;;3.80;82.00;;;;;;5070021;28;20037;-69
2023/04/06 02:39:41;;;;;;;12.57;7.50;;;3.80;82.00;;;;;;5070000;28;20416;-70
2023/04/06 02:42:08;;;;;;;16.60;9.10;;;3.80;81.90;;;;;;5070437;28;20052;-70
2023/04/06 02:44:34;;;;;;;16.15;8.20;;;3.70;82.20;;;;;;5068850;28;20036;-70
2023/04/06 02:47:00;;;;;;;13.50;7.72;;;3.60;83.10;;;;;;5070028;28;20033;-70
2023/04/06 02:49:26;;;;;;;14.95;8.55;;;3.80;83.40;;;;;;5069842;28;20025;-71
2023/04/06 02:51:51;;;;;;;13.93;8.65;;;3.80;83.30;;;;;;5069834;28;20016;-70
2023/04/06 02:54:17;;;;;;;15.30;8.70;;;3.70;83.30;;;;;;5070270;28;20032;-69
2023/04/06 02:56:43;;;;;;;13.85;8.23;;;3.60;83.80;;;;;;5068776;28;20032;-69
2023/04/06 02:59:09;;;;;;;17.30;9.05;;;3.70;84.20;;;;;;5069870;28;20051;-70
2023/04/06 03:01:35;;;;;;;14.90;8.30;;;3.60;84.00;;;;;;5069728;28;20450;-71
2023/04/06 03:04:01;;;;;;;11.25;7.30;;;3.50;84.10;;;;;;5069561;28;20120;-70
2023/04/06 03:06:27;;;;;;;15.32;8.52;;;3.50;84.70;;;;;;5069056;28;20112;-70
2023/04/06 03:08:53;;;;;;;14.98;9.02;;;3.50;85.00;;;;;;5069762;28;20025;-70
2023/04/06 03:11:19;;;;;;;20.35;9.15;;;3.40;85.40;;;;;;5069608;28;20365;-71
2023/04/06 03:13:45;;;;;;;11.23;7.72;;;3.30;85.90;;;;;;5069381;28;20074;-70
2023/04/06 03:16:10;;;;;;;13.23;7.68;;;3.30;86.10;;;;;;5069901;28;20035;-71
2023/04/06 03:18:36;;;;;;;14.70;8.82;;;3.30;86.20;;;;;;5069018;28;20056;-70
2023/04/06 03:21:02;;;;;;;15.55;8.43;;;3.30;86.30;;;;;;5072669;28;20424;-70
2023/04/06 03:23:28;;;;;;;16.20;8.50;;;3.20;86.90;;;;;;5073188;28;20040;-70
2023/04/06 03:25:53;;;;;;;12.73;8.35;;;3.20;87.10;;;;;;5073148;28;20448;-69
2023/04/06 03:28:19;;;;;;;14.50;8.90;;;3.30;87.30;;;;;;5073137;28;20024;-69
2023/04/06 03:30:45;;;;;;;16.52;8.50;;;3.10;87.70;;;;;;5071663;28;20355;-69
2023/04/06 03:33:11;;;;;;;14.35;8.23;;;3.10;87.60;;;;;;5073348;28;20021;-69
2023/04/06 03:35:37;;;;;;;13.35;8.55;;;3.20;88.00;;;;;;5073095;28;20462;-70
2023/04/06 03:38:06;;;;;;;18.77;8.50;;;3.00;87.70;;;;;;5072877;28;20463;-69
2023/04/06 03:40:32;;;;;;;14.68;8.77;;;3.10;88.10;;;;;;5071735;28;20059;-69
2023/04/06 03:42:57;;;;;;;13.98;8.57;;;3.00;88.30;;;;;;5072884;28;20336;-70
2023/04/06 03:45:23;;;;;;;16.83;8.73;;;3.00;88.60;;;;;;5072282;28;20024;-70
2023/04/06 03:47:49;;;;;;;16.45;8.57;;;3.00;88.00;;;;;;5073004;28;20039;-69
2023/04/06 03:50:15;;;;;;;14.68;8.00;;;3.00;88.20;;;;;;5072594;28;20032;-69
2023/04/06 03:52:41;;;;;;;20.08;8.75;;;3.00;88.60;;;;;;5072808;28;20059;-69
2023/04/06 03:55:07;;;;;;;18.02;8.35;;;3.00;89.00;;;;;;5072499;28;20063;-69
2023/04/06 03:57:33;;;;;;;13.20;7.53;;;3.00;88.70;;;;;;5072899;28;20095;-71
2023/04/06 03:59:59;;;;;;;15.27;7.95;;;3.00;88.70;;;;;;5072539;28;20033;-70
2023/04/06 04:02:25;;;;;;;14.38;7.95;;;2.90;89.00;;;;;;5072453;28;20043;-69
2023/04/06 04:04:51;;;;;;;14.85;8.38;;;2.90;89.00;;;;;;5072293;28;20029;-69
2023/04/06 04:07:16;;;;;;;16.73;8.68;;;2.90;89.00;;;;;;5072213;28;20128;-71
2023/04/06 04:09:42;;;;;;;18.35;8.38;;;2.90;89.40;;;;;;5071107;28;20031;-71
2023/04/06 04:12:08;;;;;;;13.95;8.13;;;2.80;89.70;;;;;;5073277;28;20450;-70
2023/04/06 04:14:34;;;;;;;11.90;6.93;;;2.80;89.80;;;;;;5072158;28;20101;-70
2023/04/06 04:16:59;;;;;;;14.20;6.93;;;2.70;90.10;;;;;;5071176;28;20526;-69
2023/04/06 04:19:25;;;;;;;11.70;6.55;;;2.90;88.90;;;;;;5076694;28;20359;-69
2023/04/06 04:21:51;;;;;;;14.02;7.10;;;3.00;88.60;;;;;;5071907;28;20030;-69
2023/04/06 04:24:16;;;;;;;12.15;7.15;;;3.10;88.20;;;;;;5071276;28;20051;-69
2023/04/06 04:26:42;;;;;;;20.42;8.15;;;3.10;88.60;;;;;;5072036;28;20076;-70
2023/04/06 04:29:08;;;;;;;9.40;6.65;;;3.10;89.30;;;;;;5071983;28;20532;-71
2023/04/06 04:31:34;;;;;;;11.40;7.07;;;3.20;88.80;;;;;;5070841;28;20505;-71
2023/04/06 04:34:00;;;;;;;13.48;7.35;;;3.00;88.90;;;;;;5071673;28;20438;-69
2023/04/06 04:36:26;;;;;;;16.27;7.25;;;3.00;89.10;;;;;;5072440;28;20103;-70
2023/04/06 04:38:52;;;;;;;12.02;6.72;;;3.10;89.40;;;;;;5071677;28;20347;-69
2023/04/06 04:41:18;;;;;;;11.93;6.57;;;2.90;89.60;;;;;;5071564;28;20033;-70
2023/04/06 04:43:44;;;;;;;14.32;6.90;;;3.00;89.10;;;;;;5071694;28;20470;-69
2023/04/06 04:46:10;;;;;;;11.30;7.30;;;3.00;89.40;;;;;;5071586;28;20408;-69
2023/04/06 04:48:35;;;;;;;12.93;6.60;;;3.10;88.60;;;;;;5072212;28;20081;-68
2023/04/06 04:51:01;;;;;;;13.32;7.32;;;3.00;89.10;;;;;;5071838;28;20097;-70
2023/04/06 04:53:27;;;;;;;11.90;6.63;;;3.10;88.90;;;;;;5071622;28;20056;-69
2023/04/06 04:55:52;;;;;;;16.25;7.25;;;3.10;89.00;;;;;;5071300;28;20446;-70
2023/04/06 04:58:19;;;;;;;11.00;6.45;;;3.00;88.90;;;;;;5071384;28;20101;-69
2023/04/06 05:00:45;;;;;;;14.65;6.88;;;3.10;88.80;;;;;;5071296;28;20521;-69
2023/04/06 05:03:24;;;;;;;9.85;5.95;;;3.10;88.70;;;;;;5071825;28;20024;-70
2023/04/06 05:05:50;;;;;;;10.82;6.28;;;3.20;88.70;;;;;;5071290;28;20112;-70
2023/04/06 05:08:16;;;;;;;13.90;6.53;;;3.20;88.90;;;;;;5071111;28;20151;-70
2023/04/06 05:10:42;;;;;;;16.42;6.78;;;3.20;88.90;;;;;;5070020;28;20119;-69
2023/04/06 05:13:08;;;;;;;13.25;6.63;;;3.10;89.00;;;;;;5071260;28;20585;-69
2023/04/06 05:15:40;;;;;;;13.05;7.10;;;3.20;88.90;;;;;;5071638;28;20196;-69
2023/04/06 05:18:09;;;;;;;12.80;6.60;;;3.10;89.30;;;;;;5071011;28;20044;-70
2023/04/06 05:20:35;;;;;;;11.93;6.05;;;3.10;89.70;;;;;;5070812;28;20398;-70
2023/04/06 05:23:01;;;;;;;14.93;6.28;;;3.20;88.90;;;;;;5070713;28;20478;-69
2023/04/06 05:25:27;;;;;;;17.92;6.07;;;3.20;88.40;;;;;;5069612;28;20131;-69
2023/04/06 05:27:53;;;;;;;12.10;6.95;;;3.30;88.60;;;;;;5069554;28;20094;-68
2023/04/06 05:30:20;;;;;;;11.02;5.63;;;3.20;88.70;;;;;;5070991;28;20076;-69
2023/04/06 05:32:46;;;;;;;12.00;5.88;;;3.30;88.40;;;;;;5073480;28;20025;-69
2023/04/06 05:35:12;;;;;;;17.70;6.32;;;3.20;88.30;;;;;;5070593;28;20075;-70
2023/04/06 05:37:39;;;;;;;13.63;5.53;;;3.30;88.10;;;;;;5070431;28;20036;-70
2023/04/06 05:40:05;;;;;;;13.57;5.65;;;3.40;88.40;;;;;;5070876;28;20044;-70
2023/04/06 05:42:42;;;;;;;10.43;5.53;;;3.40;88.70;;;;;;5070933;28;20058;-70
2023/04/06 05:45:10;;;;;;;13.07;5.97;;;3.50;87.80;;;;;;5070611;28;20472;-70
2023/04/06 05:47:36;;;;;;;10.00;5.55;;;3.60;87.70;;;;;;5069426;28;20044;-70
2023/04/06 05:50:02;;;;;;;13.43;5.47;;;3.60;87.50;;;;;;5069392;28;20100;-70
2023/04/06 05:52:28;;;;;;;9.27;5.28;;;3.60;87.30;;;;;;5070691;28;20152;-70
2023/04/06 05:54:54;;;;;;;9.73;5.57;;;3.60;87.30;;;;;;5070318;28;20027;-71
2023/04/06 05:57:20;;;;;;;9.93;5.35;;;3.70;86.80;;;;;;5069777;28;20055;-70
2023/04/06 05:59:45;;;;;;;9.90;5.40;;;3.70;86.50;;;;;;5070573;28;20029;-71
2023/04/06 06:02:11;;;;;;;8.75;5.53;;;3.90;86.70;;;;;;5070567;28;20124;-69
2023/04/06 06:04:37;;;;;;;14.75;4.90;;;3.80;86.10;;;;;;5070346;28;20462;-69
2023/04/06 06:07:03;;;;;;;11.30;5.18;;;3.90;86.00;;;;;;5069997;28;20048;-69
2023/04/06 06:09:29;;;;;;;12.13;5.72;;;4.00;85.90;;;;;;5070564;28;20020;-69
2023/04/06 06:11:55;;;;;;;9.27;5.55;;;4.00;86.00;;;;;;5070170;28;20090;-70
2023/04/06 06:14:21;;;;;;;10.93;5.97;;;4.10;86.00;;;;;;5070024;28;20120;-70
2023/04/06 06:16:47;;;;;;;9.85;5.18;;;4.20;86.30;;;;;;5070242;28;20110;-70
2023/04/06 06:19:13;;;;;;;10.25;4.75;;;4.30;85.60;;;;;;5070212;28;20038;-70
2023/04/06 06:21:39;;;;;;;8.43;4.88;;;4.40;85.30;;;;;;5069053;28;20037;-71
2023/04/06 06:24:05;;;;;;;15.50;5.22;;;4.40;84.80;;;;;;5070445;28;20036;-69
2023/04/06 06:26:31;;;;;;;12.93;4.70;;;4.50;84.80;;;;;;5068814;28;20117;-70
2023/04/06 06:28:57;;;;;;;12.02;5.47;;;4.60;84.40;;;;;;5069139;28;20505;-71
2023/04/06 06:31:22;;;;;;;16.38;5.32;;;4.70;84.40;;;;;;5070084;28;20486;-70
2023/04/06 06:33:51;;;;;;;12.13;5.70;;;4.70;83.90;;;;;;5070094;28;20347;-69
2023/04/06 06:36:18;;;;;;;10.60;5.32;;;4.80;83.20;;;;;;5070535;28;20021;-70
2023/04/06 06:38:44;;;;;;;19.90;8.40;;;4.90;83.70;;;;;;5069974;28;20032;-67
2023/04/06 06:41:10;;;;;;;18.60;7.40;;;5.00;83.10;;;;;;5069914;28;20020;-69
2023/04/06 06:43:36;;;;;;;13.00;5.90;;;5.10;82.30;;;;;;5069743;28;20037;-68
2023/04/06 06:46:01;;;;;;;9.82;5.25;;;5.30;81.90;;;;;;5070087;28;20408;-69
2023/04/06 06:48:27;;;;;;;16.45;7.22;;;5.30;81.50;;;;;;5070202;28;20029;-69
2023/04/06 06:50:53;;;;;;;15.45;7.90;;;5.40;81.40;;;;;;5068786;28;20415;-69
2023/04/06 06:53:20;;;;;;;11.88;6.93;;;5.50;81.60;;;;;;5069646;28;20361;-68
2023/04/06 06:55:46;;;;;;;9.93;4.40;;;5.60;80.70;;;;;;5072161;28;20426;-68
2023/04/06 06:58:11;;;;;;;7.10;4.25;;;5.60;80.40;;;;;;5073665;28;20032;-69
2023/04/06 07:00:37;;;;;;;7.45;4.28;;;5.70;80.10;;;;;;5073447;28;20047;-69
2023/04/06 07:03:03;;;;;;;14.75;4.85;;;5.90;79.40;;;;;;5072744;28;20082;-69
2023/04/06 07:05:29;;;;;;;9.32;5.15;;;6.00;79.50;;;;;;5073286;28;20085;-69
2023/04/06 07:07:55;;;;;;;10.30;5.18;;;6.10;79.10;;;;;;5071908;28;20488;-69
2023/04/06 07:10:21;;;;;;;12.50;4.30;;;6.20;78.90;;;;;;5073381;28;20124;-68
2023/04/06 07:12:47;;;;;;;11.18;4.85;;;6.30;76.80;;;;;;5073499;28;20030;-69
2023/04/06 07:15:13;;;;;;;15.05;6.45;;;6.40;76.20;;;;;;5073628;28;20036;-67
2023/04/06 07:17:41;;;;;;;17.30;7.20;;;6.50;76.00;;;;;;5072039;28;20069;-68
2023/04/06 07:20:07;;;;;;;11.98;4.95;;;6.50;75.50;;;;;;5073323;28;20107;-68
2023/04/06 07:22:32;;;;;;;9.52;4.72;;;6.60;74.90;;;;;;5073104;28;20454;-68
2023/04/06 07:24:58;;;;;;;13.52;4.97;;;6.60;74.60;;;;;;5071917;28;20029;-69
2023/04/06 07:27:24;;;;;;;14.27;4.43;;;6.80;74.90;;;;;;5073453;28;20111;-69
2023/04/06 07:29:50;;;;;;;7.50;4.53;;;6.90;74.20;;;;;;5072902;28;20037;-72
2023/04/06 07:32:15;;;;;;;8.85;4.65;;;6.90;74.10;;;;;;5072879;28;20138;-71
2023/04/06 07:34:41;;;;;;;8.45;3.90;;;7.10;73.80;;;;;;5073019;28;20085;-71
2023/04/06 07:37:07;;;;;;;9.90;4.68;;;7.10;73.40;;;;;;5072926;28;20029;-71
2023/04/06 07:39:32;;;;;;;9.80;4.07;;;7.20;72.80;;;;;;5073154;28;20021;-69
2023/04/06 07:41:58;;;;;;;8.18;4.78;;;7.30;72.00;;;;;;5071483;28;20040;-70
2023/04/06 07:44:24;;;;;;;6.50;4.10;;;7.40;71.90;;;;;;5071710;28;20033;-69
2023/04/06 07:46:50;;;;;;;9.20;4.05;;;7.40;71.40;;;;;;5072739;28;20040;-69
2023/04/06 07:49:15;;;;;;;11.18;4.75;;;7.50;71.20;;;;;;5072636;28;20032;-70
2023/04/06 07:51:42;;;;;;;6.43;4.35;;;7.50;70.90;;;;;;5071367;28;20205;-70
2023/04/06 07:54:07;;;;;;;8.88;4.45;;;7.70;70.40;;;;;;5072111;28;20075;-67
2023/04/06 07:56:33;;;;;;;11.68;6.70;;;7.70;70.40;;;;;;5072940;28;20470;-70
2023/04/06 07:58:59;;;;;;;14.10;5.78;;;7.80;70.40;;;;;;5071245;28;20029;-69
2023/04/06 08:01:26;;;;;;;9.57;4.90;;;7.80;70.50;;;;;;5072408;28;20048;-68
2023/04/06 08:03:51;;;;;;;12.90;5.15;;;7.90;70.30;;;;;;5072348;28;20341;-67
2023/04/06 08:06:17;;;;;;;11.45;4.47;;;8.00;69.90;;;;;;5071698;28;20020;-69
2023/04/06 08:08:43;;;;;;;7.85;4.30;;;8.10;69.80;;;;;;5072006;28;20032;-71
2023/04/06 08:11:09;;;;;;;9.13;4.32;;;8.20;69.50;;;;;;5074627;28;20052;-69
2023/04/06 08:13:35;;;;;;;10.15;5.70;;;8.40;69.60;;;;;;5071917;28;20366;-69
2023/04/06 08:16:01;;;;;;;8.70;4.57;;;8.50;69.10;;;;;;5072050;28;20033;-70
2023/04/06 08:18:28;;;;;;;6.85;4.45;;;8.60;69.30;;;;;;5073025;28;20017;-69
2023/04/06 08:20:55;;;;;;;8.63;4.35;;;8.70;69.30;;;;;;5071016;28;20463;-69
2023/04/06 08:23:21;;;;;;;8.18;4.43;;;9.00;69.70;;;;;;5071765;28;20048;-69
2023/04/06 08:25:47;;;;;;;13.65;4.70;;;9.30;69.20;;;;;;5070875;28;20465;-69
2023/04/06 08:28:12;;;;;;;10.23;4.60;;;9.70;67.70;;;;;;5071838;28;20032;-70
2023/04/06 08:30:42;;;;;;;7.53;4.45;;;10.80;66.00;;;;;;5071383;28;20395;-71
2023/04/06 08:33:09;;;;;;;10.40;4.65;;;12.40;64.40;;;;;;5071412;28;20111;-68
2023/04/06 08:35:35;;;;;;;7.28;4.55;;;14.00;59.60;;;;;;5071565;28;20265;-69
2023/04/06 08:38:00;;;;;;;7.28;4.35;;;15.20;56.30;;;;;;5070293;28;20037;-71
2023/04/06 08:40:27;;;;;;;9.13;4.43;;;16.50;56.80;;;;;;5071497;28;20032;-69
2023/04/06 08:42:55;;;;;;;9.95;4.60;;;17.30;51.00;;;;;;5071529;28;20421;-69
2023/04/06 08:45:22;;;;;;;10.18;3.90;;;18.40;51.10;;;;;;5071989;28;20379;-71
2023/04/06 08:47:52;;;;;;;7.00;4.30;;;19.30;47.80;;;;;;5071563;28;20033;-71
2023/04/06 08:50:18;;;;;;;5.28;3.95;;;19.80;45.60;;;;;;5071391;28;20025;-69
2023/04/06 08:52:47;;;;;;;7.38;4.60;;;20.40;44.40;;;;;;5071589;28;20036;-70
2023/04/06 08:55:13;;;;;;;8.73;5.18;;;21.00;43.30;;;;;;5071289;28;20367;-70
2023/04/06 08:57:40;;;;;;;6.00;4.35;;;21.10;42.00;;;;;;5071045;28;20028;-70
2023/04/06 09:00:09;;;;;;;7.40;4.22;;;22.20;42.00;;;;;;5071686;28;20109;-69
2023/04/06 09:02:38;;;;;;;5.95;3.90;;;22.60;40.60;;;;;;5071087;28;20032;-70
2023/04/06 09:05:04;;;;;;;7.97;4.82;;;22.80;39.40;;;;;;5071461;28;20178;-70
2023/04/06 09:07:30;;;;;;;9.55;5.32;;;22.60;38.40;;;;;;5071008;28;20514;-69
2023/04/06 09:09:56;;;;;;;9.98;4.78;;;22.30;36.90;;;;;;5070816;28;20021;-69
2023/04/06 09:12:24;;;;;;;8.02;4.57;;;22.40;37.40;;;;;;5070544;28;20029;-68
2023/04/06 09:14:50;;;;;;;7.90;4.57;;;23.50;37.50;;;;;;5070875;28;20024;-69
2023/04/06 09:17:26;;;;;;;6.97;4.72;;;23.60;35.40;;;;;;5070442;28;20029;-71
2023/04/06 09:19:52;;;;;;;10.55;4.95;;;24.00;35.10;;;;;;5069709;28;20051;-71
2023/04/06 09:22:19;;;;;;;7.28;5.03;;;23.90;35.20;;;;;;5069773;28;20025;-73
2023/04/06 09:24:47;;;;;;;8.68;4.75;;;24.90;35.00;;;;;;5070785;28;20101;-73
2023/04/06 09:27:14;;;;;;;7.75;4.68;;;25.20;34.10;;;;;;5070116;28;20414;-72
2023/04/06 09:29:41;;;;;;;10.40;4.57;;;25.00;33.30;;;;;;5070550;28;20075;-72
2023/04/06 09:32:10;;;;;;;7.15;4.40;;;25.30;33.60;;;;;;5069149;28;20043;-76
2023/04/06 09:34:37;;;;;;;7.60;4.90;;;25.30;32.30;;;;;;5067847;28;20040;-76
2023/04/06 09:37:18;;;;;;;6.55;4.95;;;25.90;31.50;;;;;;5070835;28;20048;-77
2023/04/06 09:39:44;;;;;;;7.85;5.05;;;25.60;30.60;;;;;;5070628;28;20052;-76
2023/04/06 09:42:27;;;;;;;6.72;4.68;;;24.90;30.70;;;;;;5070923;28;20028;-77
2023/04/06 09:44:54;;;;;;;6.40;4.63;;;25.60;31.50;;;;;;5071449;28;20485;-76
2023/04/06 09:47:20;;;;;;;8.05;5.57;;;25.10;30.00;;;;;;5071955;28;20041;-76
2023/04/06 09:49:49;;;;;;;7.45;4.60;;;26.00;30.60;;;;;;5071491;28;20537;-75
2023/04/06 09:52:16;;;;;;;7.80;4.32;;;26.10;30.50;;;;;;5070376;28;20062;-76
2023/04/06 09:54:44;;;;;;;15.02;7.05;;;26.60;29.60;;;;;;5071451;28;20407;-75
2023/04/06 09:57:10;;;;;;;13.52;7.05;;;26.20;30.00;;;;;;5072187;28;20305;-76
2023/04/06 10:00:09;;;;;;;8.15;4.72;;;26.10;29.50;;;;;;5073382;28;20044;-74
2023/04/06 10:03:12;;;;;;;5.95;4.25;;;26.70;29.80;;;;;;5071095;28;20032;-73
2023/04/06 10:05:45;;;;;;;10.43;5.28;;;26.50;29.10;;;;;;5070889;28;20025;-74
2023/04/06 10:08:13;;;;;;;8.57;4.70;;;26.20;29.40;;;;;;5071370;28;20021;-75
2023/04/06 10:10:39;;;;;;;9.18;5.03;;;25.90;28.80;;;;;;5070217;28;20323;-73
2023/04/06 10:13:05;;;;;;;9.20;4.63;;;26.00;29.10;;;;;;5070103;28;20032;-75
2023/04/06 10:15:32;;;;;;;8.45;4.28;;;26.30;28.60;;;;;;5070481;28;20463;-74
2023/04/06 10:18:01;;;;;;;9.52;5.35;;;25.90;29.30;;;;;;5071038;28;20059;-75
2023/04/06 10:20:27;;;;;;;10.57;5.63;;;26.20;29.70;;;;;;5071171;28;20382;-76
2023/04/06 10:23:19;;;;;;;6.88;4.78;;;26.90;29.10;;;;;;5070164;28;20466;-77
2023/04/06 10:25:56;;;;;;;6.43;4.03;;;26.80;28.90;;;;;;5070173;28;20138;-78
2023/04/06 10:28:22;;;;;;;8.85;4.80;;;26.00;28.70;;;;;;5071443;28;20082;-79
2023/04/06 10:30:48;;;;;;;10.00;5.53;;;26.20;28.50;;;;;;5074195;28;20080;-79
2023/04/06 10:33:19;;;;;;;7.25;4.80;;;26.30;28.60;;;;;;5075586;28;20085;-79
2023/04/06 10:35:46;;;;;;;9.30;4.97;;;26.50;27.90;;;;;;5073895;28;20485;-78
2023/04/06 10:38:14;;;;;;;10.13;4.68;;;26.00;28.40;;;;;;5074046;28;20048;-76
2023/04/06 10:40:42;;;;;;;8.02;4.80;;;26.50;28.60;;;;;;5075309;28;20036;-76
2023/04/06 10:43:21;;;;;;;10.85;5.07;;;26.20;28.40;;;;;;5073423;28;20124;-76
2023/04/06 10:45:56;;;;;;;10.55;5.10;;;26.20;27.60;;;;;;5075072;28;20025;-76
2023/04/06 10:48:23;;;;;;;9.68;4.70;;;26.00;28.00;;;;;;5076651;28;20350;-77
2023/04/06 10:50:51;;;;;;;12.95;6.13;;;26.10;27.10;;;;;;5073799;28;20080;-76
2023/04/06 10:53:27;;;;;;;7.72;4.63;;;25.80;27.20;;;;;;5074687;28;20033;-77
2023/04/06 10:55:55;;;;;;;8.55;4.70;;;26.00;27.20;;;;;;5074825;28;20119;-75
2023/04/06 10:58:25;;;;;;;7.50;5.18;;;25.70;27.70;;;;;;5074791;28;20029;-74
2023/04/06 11:00:51;;;;;;;9.25;5.03;;;25.70;27.50;;;;;;5074667;28;20029;-75
2023/04/06 11:03:17;;;;;;;6.82;5.07;;;25.90;28.30;;;;;;5073561;28;20024;-73
2023/04/06 11:05:48;;;;;;;11.07;5.63;;;25.90;28.00;;;;;;5073257;28;20366;-72
2023/04/06 11:08:31;;;;;;;7.18;5.85;;;25.90;28.20;;;;;;5073248;28;20508;-74
2023/04/06 11:11:07;;;;;;;9.02;6.38;;;24.90;27.60;;;;;;5074116;28;20047;-74
2023/04/06 11:13:52;;;;;;;10.52;6.13;;;25.10;27.60;;;;;;5074496;28;20036;-73
2023/04/06 11:16:29;;;;;;;8.90;6.00;;;24.90;27.70;;;;;;5073102;28;20460;-73
2023/04/06 11:19:00;;;;;;;10.65;6.53;;;24.80;27.80;;;;;;5073999;28;20120;-73
2023/04/06 11:21:36;;;;;;;11.95;6.85;;;24.40;27.60;;;;;;5073579;28;20033;-73
2023/04/06 11:24:15;;;;;;;11.30;7.80;;;24.00;27.90;;;;;;5074110;28;20116;-72
2023/04/06 11:26:55;;;;;;;9.93;6.55;;;24.00;27.70;;;;;;5074153;28;20110;-73
2023/04/06 11:29:23;;;;;;;11.52;7.35;;;23.40;27.90;;;;;;5072970;28;20528;-72
2023/04/06 11:31:51;;;;;;;11.55;7.40;;;22.30;27.90;;;;;;5073754;28;20052;-72
2023/04/06 11:34:22;;;;;;;10.15;6.63;;;21.50;28.30;;;;;;5072485;28;20373;-74
2023/04/06 11:36:54;;;;;;;12.48;6.55;;;20.80;28.80;;;;;;5073278;28;20032;-71
2023/04/06 11:39:23;;;;;;;10.73;6.80;;;20.60;29.20;;;;;;5072720;28;20021;-71
2023/04/06 11:41:50;;;;;;;12.00;7.10;;;20.00;29.60;;;;;;5071614;28;20032;-72
2023/04/06 11:44:34;;;;;;;11.82;7.15;;;19.60;30.40;;;;;;5072866;28;20039;-71
2023/04/06 11:47:05;;;;;;;12.57;6.93;;;19.70;30.20;;;;;;5072646;28;20050;-73
2023/04/06 11:49:32;;;;;;;11.93;6.45;;;19.20;30.30;;;;;;5071574;28;20031;-71
2023/04/06 11:52:00;;;;;;;12.37;7.03;;;19.10;30.50;;;;;;5071523;28;20504;-72
2023/04/06 11:54:40;;;;;;;8.57;6.13;;;18.70;30.60;;;;;;5072878;28;20025;-72
2023/04/06 11:57:09;;;;;;;12.85;7.13;;;18.50;31.00;;;;;;5072809;28;20056;-73
2023/04/06 11:59:35;;;;;;;15.48;7.38;;;18.20;31.60;;;;;;5072097;28;20029;-73
2023/04/06 12:02:05;;;;;;;11.85;7.20;;;18.20;31.90;;;;;;5072523;28;20028;-73
2023/04/06 12:04:31;;;;;;;16.70;7.93;;;17.90;32.10;;;;;;5071367;28;20069;-73
2023/04/06 12:06:57;;;;;;;12.18;7.93;;;17.50;33.10;;;;;;5072274;28;20078;-73
2023/04/06 12:09:23;;;;;;;10.75;7.55;;;17.40;33.10;;;;;;5071616;28;20036;-72
2023/04/06 12:11:49;;;;;;;11.38;7.53;;;17.50;33.00;;;;;;5071930;28;20035;-71
2023/04/06 12:14:15;;;;;;;12.05;7.65;;;17.40;33.20;;;;;;5070887;28;20692;-71
2023/04/06 12:16:41;;;;;;;13.63;6.90;;;17.40;33.60;;;;;;5072257;28;20101;-74
2023/04/06 12:19:07;;;;;;;13.05;6.28;;;17.50;33.50;;;;;;5072244;28;20024;-71
2023/04/06 12:21:37;;;;;;;11.20;6.95;;;17.40;33.70;;;;;;5072336;28;20024;-72
2023/04/06 12:24:04;;;;;;;9.80;6.72;;;17.30;33.50;;;;;;5072041;28;20497;-72
2023/04/06 12:26:30;;;;;;;11.43;6.57;;;17.20;33.30;;;;;;5071701;28;20060;-71
2023/04/06 12:28:57;;;;;;;13.85;7.32;;;17.10;33.50;;;;;;5071685;28;20056;-70
2023/04/06 12:31:25;;;;;;;11.15;6.15;;;17.00;33.70;;;;;;5071541;28;20044;-73
2023/04/06 12:33:51;;;;;;;;;;;16.90;34.10;;;;;;5072166;28;20029;-71
2023/04/06 12:36:19;;;;;;;14.45;6.43;;;16.90;34.30;;;;;;5071108;28;19942;-71
2023/04/06 12:38:47;;;;;;;11.40;7.35;;;16.80;34.60;;;;;;5071772;28;20055;-68
2023/04/06 12:41:14;;;;;;;12.82;8.05;;;16.80;34.70;;;;;;5071728;28;20025;-71
2023/04/06 12:43:41;;;;;;;13.48;7.22;;;16.80;35.00;;;;;;5071956;28;20532;-69
2023/04/06 12:46:07;;;;;;;12.13;6.70;;;16.60;34.60;;;;;;5070517;28;20040;-70